createdAt,value
2019-04-20T00:01:19.904Z,5.75
2019-04-20T00:03:47.370Z,6.12
2019-04-20T00:06:19.509Z,6.95
2019-04-20T00:08:55.491Z,6.92
2019-04-20T00:11:29.566Z,6.17
2019-04-20T00:14:02.561Z,7.60
2019-04-20T00:16:25.178Z,4.75
2019-04-20T00:18:58.353Z,10.23
2019-04-20T00:21:46.415Z,7.00
2019-04-20T00:24:24.807Z,7.53
2019-04-20T00:29:40.667Z,7.20
2019-04-20T00:32:06.589Z,7.78
2019-04-20T00:34:33.145Z,5.65
2019-04-20T00:37:00.276Z,6.08
2019-04-20T00:39:31.872Z,7.35
2019-04-20T00:42:06.674Z,8.65
2019-04-20T00:44:37.711Z,6.05
2019-04-20T00:47:16.008Z,5.62
2019-04-20T00:49:48.309Z,5.50
2019-04-20T00:52:32.899Z,7.05
2019-04-20T00:54:39.380Z,9.33
2019-04-20T00:57:21.419Z,4.87
2019-04-20T01:00:03.388Z,14.05
2019-04-20T01:02:25.707Z,9.58
2019-04-20T01:05:04.015Z,7.35
2019-04-20T01:07:39.517Z,9.08
2019-04-20T01:10:05.378Z,8.95
2019-04-20T01:12:38.733Z,7.20
2019-04-20T01:15:11.809Z,9.03
2019-04-20T01:17:41.685Z,7.78
2019-04-20T01:20:11.246Z,9.25
2019-04-20T01:22:51.009Z,7.78
2019-04-20T01:25:20.585Z,6.22
2019-04-20T01:28:04.482Z,11.03
2019-04-20T01:30:25.344Z,5.55
2019-04-20T01:33:02.533Z,8.68
2019-04-20T01:35:38.286Z,6.92
2019-04-20T01:38:16.294Z,7.10
2019-04-20T01:40:23.229Z,5.67
2019-04-20T01:42:55.351Z,8.28
2019-04-20T01:45:29.390Z,6.67
2019-04-20T01:47:59.538Z,7.15
2019-04-20T01:50:33.279Z,7.67
2019-04-20T01:53:11.523Z,6.72
2019-04-20T01:55:45.500Z,5.10
2019-04-20T01:58:35.182Z,7.55
2019-04-20T02:01:17.769Z,6.33
2019-04-20T02:03:50.247Z,7.70
2019-04-20T02:06:21.656Z,6.65
2019-04-20T02:08:58.355Z,7.42
2019-04-20T02:11:28.849Z,7.97
2019-04-20T02:13:58.182Z,9.63
2019-04-20T02:16:34.985Z,6.50
2019-04-20T02:19:13.519Z,7.15
2019-04-20T02:21:48.867Z,6.75
2019-04-20T02:24:04.008Z,7.22
2019-04-20T02:26:32.248Z,6.87
2019-04-20T02:29:29.134Z,7.20
2019-04-20T02:37:49.455Z,7.42
2019-04-20T02:40:15.725Z,7.33
2019-04-20T02:42:50.970Z,8.70
2019-04-20T02:45:24.136Z,9.65
2019-04-20T02:47:47.801Z,10.13
2019-04-20T02:50:38.305Z,9.05
2019-04-20T03:00:20.547Z,8.30
2019-04-20T03:02:38.315Z,12.60
2019-04-20T03:05:08.268Z,8.43
2019-04-20T03:07:49.386Z,9.43
2019-04-20T03:10:19.249Z,8.68
2019-04-20T03:12:50.594Z,7.83
2019-04-20T03:15:24.023Z,7.50
2019-04-20T03:17:51.203Z,8.45
2019-04-20T03:20:29.888Z,7.22
2019-04-20T03:23:26.015Z,8.05
2019-04-20T03:25:53.406Z,7.55
2019-04-20T03:28:19.474Z,7.47
2019-04-20T03:31:33.738Z,7.28
2019-04-20T03:34:03.394Z,8.03
2019-04-20T03:36:18.148Z,8.70
2019-04-20T03:38:36.327Z,8.03
2019-04-20T03:41:05.154Z,8.45
2019-04-20T03:43:22.616Z,8.28
2019-04-20T03:45:59.470Z,9.78
2019-04-20T03:48:41.412Z,7.65
2019-04-20T03:51:14.892Z,7.83
2019-04-20T03:54:07.585Z,8.03
2019-04-20T03:56:47.992Z,7.83
2019-04-20T03:59:25.416Z,8.45
2019-04-20T04:05:00.522Z,9.05
2019-04-20T04:07:22.836Z,8.45
2019-04-20T04:10:04.593Z,10.98
2019-04-20T04:13:01.121Z,9.78
2019-04-20T04:15:31.698Z,9.65
2019-04-20T04:18:07.544Z,10.32
2019-04-20T04:20:43.714Z,9.78
2019-04-20T04:23:24.948Z,11.12
2019-04-20T04:25:55.694Z,11.10
2019-04-20T04:28:27.663Z,9.90
2019-04-20T04:31:06.357Z,12.73
2019-04-20T04:36:03.134Z,9.33
2019-04-20T04:38:39.584Z,8.13
2019-04-20T04:41:17.090Z,9.00
2019-04-20T04:43:41.344Z,10.10
2019-04-20T04:45:51.758Z,9.90
2019-04-20T04:48:28.339Z,8.63
2019-04-20T04:50:59.855Z,14.80
2019-04-20T04:53:38.876Z,9.73
2019-04-20T04:56:02.825Z,10.10
2019-04-20T04:58:27.795Z,8.20
2019-04-20T05:01:07.724Z,9.78
2019-04-20T05:03:45.189Z,11.00
2019-04-20T05:06:29.089Z,11.18
2019-04-20T05:08:49.939Z,9.20
2019-04-20T05:11:15.316Z,10.15
2019-04-20T05:13:54.182Z,13.80
2019-04-20T05:16:38.261Z,8.00
2019-04-20T05:19:13.488Z,8.20
2019-04-20T05:24:59.425Z,15.58
2019-04-20T05:27:46.660Z,10.75
2019-04-20T05:30:01.305Z,11.95
2019-04-20T05:32:44.053Z,8.75
2019-04-20T05:35:26.386Z,10.08
2019-04-20T05:38:01.162Z,8.38
2019-04-20T05:40:30.234Z,10.53
2019-04-20T05:43:15.512Z,14.03
2019-04-20T05:45:42.823Z,11.05
2019-04-20T05:48:19.664Z,11.30
2019-04-20T05:50:49.401Z,10.85
2019-04-20T05:53:31.042Z,8.83
2019-04-20T05:55:50.289Z,11.25
2019-04-20T05:58:26.117Z,10.18
2019-04-20T06:01:01.668Z,14.20
2019-04-20T06:03:26.115Z,8.03
2019-04-20T06:06:03.462Z,11.25
2019-04-20T06:08:53.940Z,8.83
2019-04-20T06:11:01.994Z,8.33
2019-04-20T06:13:32.606Z,14.60
2019-04-20T06:16:18.668Z,13.28
2019-04-20T06:18:48.716Z,8.43
2019-04-20T06:21:57.616Z,8.10
2019-04-20T06:24:37.533Z,11.65
2019-04-20T06:26:59.666Z,8.30
2019-04-20T06:29:23.556Z,10.13
2019-04-20T06:32:08.651Z,8.80
2019-04-20T06:37:03.658Z,11.65
2019-04-20T06:39:41.468Z,7.15
2019-04-20T06:44:57.328Z,10.03
2019-04-20T06:47:19.919Z,12.30
2019-04-20T06:49:38.407Z,11.22
2019-04-20T06:55:04.454Z,10.78
2019-04-20T06:57:40.362Z,9.43
2019-04-20T07:00:14.157Z,9.18
2019-04-20T07:02:46.414Z,9.75
2019-04-20T07:05:11.868Z,9.15
2019-04-20T07:08:00.730Z,8.68
2019-04-20T07:10:33.918Z,10.40
2019-04-20T07:12:41.938Z,9.73
2019-04-20T07:15:17.748Z,8.75
2019-04-20T07:20:53.563Z,10.63
2019-04-20T07:23:21.373Z,12.75
2019-04-20T07:25:52.854Z,9.60
2019-04-20T07:28:19.703Z,11.73
2019-04-20T07:30:53.942Z,13.03
2019-04-20T07:33:24.548Z,10.72
2019-04-20T07:35:50.893Z,9.08
2019-04-20T07:38:30.883Z,10.65
2019-04-20T07:40:56.134Z,10.90
2019-04-20T07:43:28.083Z,10.82
2019-04-20T07:46:03.021Z,8.63
2019-04-20T07:48:31.073Z,11.12
2019-04-20T07:50:54.386Z,11.55
2019-04-20T07:53:29.321Z,9.58
2019-04-20T07:56:04.646Z,8.70
2019-04-20T07:58:28.339Z,10.85
2019-04-20T08:01:24.248Z,8.20
2019-04-20T08:03:55.706Z,10.05
2019-04-20T08:06:29.821Z,9.65
2019-04-20T08:09:08.437Z,10.32
2019-04-20T08:11:50.777Z,8.83
2019-04-20T08:14:22.662Z,11.33
2019-04-20T08:16:58.444Z,12.00
2019-04-20T08:19:17.402Z,8.53
2019-04-20T08:22:08.339Z,10.65
2019-04-20T08:24:17.627Z,10.68
2019-04-20T08:26:41.645Z,8.43
2019-04-20T08:29:42.385Z,9.93
2019-04-20T08:32:51.818Z,8.93
2019-04-20T08:35:31.933Z,7.35
2019-04-20T08:38:14.890Z,12.05
2019-04-20T08:40:34.491Z,8.10
2019-04-20T08:43:13.071Z,8.05
2019-04-20T08:45:45.255Z,11.18
2019-04-20T08:48:14.166Z,9.50
2019-04-20T08:50:45.119Z,13.10
2019-04-20T08:53:21.968Z,11.00
2019-04-20T08:55:43.833Z,8.30
2019-04-20T08:57:58.195Z,8.95
2019-04-20T09:00:33.369Z,7.45
2019-04-20T09:03:09.433Z,8.85
2019-04-20T09:05:42.496Z,10.28
2019-04-20T09:08:14.614Z,11.63
2019-04-20T09:10:49.531Z,7.83
2019-04-20T09:13:18.626Z,9.10
2019-04-20T09:15:38.434Z,9.58
2019-04-20T09:18:22.790Z,8.63
2019-04-20T09:20:53.794Z,6.45
2019-04-20T09:23:35.390Z,8.65
2019-04-20T09:26:10.202Z,8.93
2019-04-20T09:28:38.273Z,13.72
2019-04-20T09:31:35.898Z,8.23
2019-04-20T09:34:14.334Z,8.28
2019-04-20T09:36:49.829Z,6.90
2019-04-20T09:39:35.178Z,9.03
2019-04-20T09:42:05.202Z,8.93
2019-04-20T09:44:37.534Z,8.85
2019-04-20T09:47:07.354Z,12.80
2019-04-20T09:49:49.262Z,9.50
2019-04-20T09:52:22.996Z,12.55
2019-04-20T09:54:59.328Z,9.48
2019-04-20T09:57:33.297Z,9.00
2019-04-20T10:00:01.712Z,8.48
2019-04-20T10:02:24.177Z,7.50
2019-04-20T10:04:49.446Z,11.45
2019-04-20T10:07:23.601Z,6.47
2019-04-20T10:09:52.056Z,14.78
2019-04-20T10:12:22.031Z,7.03
2019-04-20T10:14:53.094Z,8.93
2019-04-20T10:17:23.565Z,10.32
2019-04-20T10:19:53.704Z,10.78
2019-04-20T10:22:24.585Z,7.28
2019-04-20T10:24:55.591Z,7.47
2019-04-20T10:27:26.492Z,8.38
2019-04-20T10:29:57.805Z,9.20
2019-04-20T10:32:34.246Z,8.45
2019-04-20T10:34:59.401Z,8.53
2019-04-20T10:37:33.656Z,8.13
2019-04-20T10:40:04.807Z,8.75
2019-04-20T10:42:36.352Z,8.65
2019-04-20T10:45:08.670Z,8.63
2019-04-20T10:47:39.040Z,17.48
2019-04-20T10:50:09.315Z,8.03
2019-04-20T10:52:41.534Z,11.75
2019-04-20T10:55:12.488Z,9.30
2019-04-20T10:57:43.697Z,9.58
2019-04-20T11:00:15.612Z,11.10
2019-04-20T11:02:47.445Z,6.62
2019-04-20T11:05:17.015Z,10.38
2019-04-20T11:07:46.916Z,8.95
2019-04-20T11:10:22.812Z,14.15
2019-04-20T11:12:48.467Z,10.45
2019-04-20T11:15:18.668Z,10.93
2019-04-20T11:17:49.105Z,7.80
2019-04-20T11:20:19.299Z,8.48
2019-04-20T11:22:50.437Z,10.23
2019-04-20T11:25:20.511Z,8.18
2019-04-20T11:27:50.366Z,8.28
2019-04-20T11:30:20.425Z,9.08
2019-04-20T11:32:50.300Z,8.65
2019-04-20T11:35:28.111Z,6.45
2019-04-20T11:37:51.618Z,8.73
2019-04-20T11:40:21.510Z,6.78
2019-04-20T11:42:51.378Z,8.68
2019-04-20T11:45:22.501Z,8.38
2019-04-20T11:47:53.751Z,6.97
2019-04-20T11:50:25.202Z,7.12
2019-04-20T11:52:55.362Z,7.60
2019-04-20T11:55:26.538Z,7.72
2019-04-20T11:57:56.510Z,8.50
2019-04-20T12:00:46.974Z,7.53
2019-04-20T12:03:33.297Z,7.60
2019-04-20T12:06:02.822Z,8.43
2019-04-20T12:08:31.213Z,7.65
2019-04-20T12:11:18.853Z,7.20
2019-04-20T12:13:34.541Z,9.23
2019-04-20T12:16:05.676Z,7.75
2019-04-20T12:18:35.906Z,7.67
2019-04-20T12:21:05.888Z,14.55
2019-04-20T12:23:36.193Z,8.93
2019-04-20T12:26:06.792Z,9.23
2019-04-20T12:28:37.949Z,7.37
2019-04-20T12:31:12.940Z,7.67
2019-04-20T12:33:40.154Z,8.23
2019-04-20T12:36:10.424Z,8.13
2019-04-20T12:38:41.325Z,10.70
2019-04-20T12:41:12.723Z,9.33
2019-04-20T12:43:43.599Z,11.48
2019-04-20T12:46:16.334Z,10.72
2019-04-20T12:48:44.915Z,9.75
2019-04-20T12:51:15.568Z,12.93
2019-04-20T12:53:46.572Z,10.18
2019-04-20T12:56:16.944Z,9.58
2019-04-20T12:58:47.372Z,9.08
2019-04-20T13:01:20.236Z,10.00
2019-04-20T13:03:49.858Z,8.83
2019-04-20T13:06:21.774Z,8.25
2019-04-20T13:08:55.583Z,8.43
2019-04-20T13:11:34.650Z,8.10
2019-04-20T13:14:44.409Z,12.68
2019-04-20T13:17:14.560Z,10.75
2019-04-20T13:19:45.058Z,10.48
2019-04-20T13:22:15.065Z,11.08
2019-04-20T13:24:45.223Z,8.08
2019-04-20T13:27:16.472Z,11.30
2019-04-20T13:29:49.094Z,8.58
2019-04-20T13:32:18.171Z,11.08
2019-04-20T13:34:47.878Z,10.00
2019-04-20T13:37:18.040Z,8.68
2019-04-20T13:39:49.013Z,8.78
2019-04-20T13:42:23.289Z,9.95
2019-04-20T13:44:50.789Z,8.58
2019-04-20T13:47:20.991Z,6.42
2019-04-20T13:49:51.358Z,8.68
2019-04-20T13:52:22.721Z,8.00
2019-04-20T13:54:53.912Z,7.08
2019-04-20T13:57:30.062Z,9.25
2019-04-20T14:00:02.119Z,7.45
2019-04-20T14:02:42.652Z,6.47
2019-04-20T14:05:12.882Z,8.48
2019-04-20T14:07:43.199Z,8.43
2019-04-20T14:10:13.439Z,7.00
2019-04-20T14:12:53.405Z,6.42
2019-04-20T14:15:15.248Z,10.60
2019-04-20T14:17:46.806Z,8.33
2019-04-20T14:20:20.186Z,8.98
2019-04-20T14:22:49.167Z,6.50
2019-04-20T14:25:19.090Z,6.35
2019-04-20T14:27:48.800Z,7.20
2019-04-20T14:30:19.291Z,9.43
2019-04-20T14:32:50.426Z,7.03
2019-04-20T14:35:20.805Z,5.95
2019-04-20T14:37:52.084Z,9.18
2019-04-20T14:40:22.182Z,10.00
2019-04-20T14:42:53.733Z,5.62
2019-04-20T14:45:24.671Z,6.37
2019-04-20T14:47:54.637Z,8.80
2019-04-20T14:50:25.527Z,9.10
2019-04-20T14:52:55.617Z,7.40
2019-04-20T14:55:25.857Z,6.45
2019-04-20T14:57:57.446Z,6.40
2019-04-20T15:00:53.312Z,7.50
2019-04-20T15:03:37.332Z,8.43
2019-04-20T15:06:07.439Z,9.08
2019-04-20T15:08:38.627Z,6.90
2019-04-20T15:11:09.237Z,5.47
2019-04-20T15:13:40.577Z,7.12
2019-04-20T15:16:10.899Z,7.45
2019-04-20T15:18:45.566Z,8.60
2019-04-20T15:21:17.627Z,8.68
2019-04-20T15:23:47.900Z,7.90
2019-04-20T15:26:18.433Z,5.83
2019-04-20T15:28:48.452Z,8.80
2019-04-20T15:31:18.491Z,5.35
2019-04-20T15:33:48.855Z,8.30
2019-04-20T15:36:20.049Z,9.15
2019-04-20T15:38:51.263Z,10.63
2019-04-20T15:41:21.174Z,6.67
2019-04-20T15:43:51.214Z,8.48
2019-04-20T15:46:21.346Z,6.75
2019-04-20T15:48:52.371Z,8.55
2019-04-20T15:51:23.719Z,5.90
2019-04-20T15:53:53.712Z,8.08
2019-04-20T15:56:24.594Z,6.47
2019-04-20T15:58:54.636Z,6.65
2019-04-20T16:01:28.329Z,6.08
2019-04-20T16:04:05.704Z,9.90
2019-04-20T16:06:36.973Z,7.25
2019-04-20T16:09:08.361Z,11.45
2019-04-20T16:11:39.432Z,8.73
2019-04-20T16:14:09.200Z,4.83
2019-04-20T16:16:40.291Z,4.05
2019-04-20T16:19:19.556Z,9.15
2019-04-20T16:21:41.750Z,7.28
2019-04-20T16:24:15.140Z,10.08
2019-04-20T16:26:49.622Z,10.68
2019-04-20T16:29:19.806Z,6.30
2019-04-20T16:31:50.782Z,6.40
2019-04-20T16:34:21.426Z,5.90
2019-04-20T16:36:53.434Z,8.28
2019-04-20T16:39:24.668Z,6.35
2019-04-20T16:41:54.568Z,10.13
2019-04-20T16:44:25.123Z,7.20
2019-04-20T16:46:56.284Z,5.22
2019-04-20T16:49:26.119Z,5.53
2019-04-20T16:51:57.104Z,7.72
2019-04-20T16:54:27.992Z,5.87
2019-04-20T16:56:57.876Z,5.95
2019-04-20T16:59:28.247Z,9.35
2019-04-20T17:01:58.316Z,6.45
2019-04-20T17:04:28.920Z,5.58
2019-04-20T17:07:20.687Z,5.37
2019-04-20T17:09:51.838Z,6.10
2019-04-20T17:12:23.909Z,7.37
2019-04-20T17:14:55.817Z,8.58
2019-04-20T17:17:25.820Z,5.53
2019-04-20T17:19:55.701Z,5.15
2019-04-20T17:22:25.695Z,4.42
2019-04-20T17:24:55.703Z,5.10
2019-04-20T17:27:48.900Z,5.75
2019-04-20T17:30:59.225Z,4.20
2019-04-20T17:33:54.633Z,6.03
2019-04-20T17:36:20.865Z,6.53
2019-04-20T17:38:52.009Z,9.30
2019-04-20T17:41:37.167Z,8.98
2019-04-20T17:44:05.887Z,6.20
2019-04-20T17:46:34.439Z,6.95
2019-04-20T17:49:12.114Z,11.43
2019-04-20T17:51:47.340Z,9.53
2019-04-20T17:54:22.152Z,6.72
2019-04-20T17:56:52.549Z,5.03
2019-04-20T17:59:22.484Z,10.20
2019-04-20T18:02:25.005Z,7.40
2019-04-20T18:05:22.026Z,7.25
2019-04-20T18:07:48.287Z,8.15
2019-04-20T18:10:18.974Z,7.03
2019-04-20T18:12:37.499Z,14.30
2019-04-20T18:15:21.097Z,4.55
2019-04-20T18:18:23.894Z,11.18
2019-04-20T18:20:52.664Z,4.17
2019-04-20T18:23:29.331Z,6.17
2019-04-20T18:26:10.951Z,7.03
2019-04-20T18:28:39.994Z,7.53
2019-04-20T18:31:08.598Z,4.22
2019-04-20T18:33:38.708Z,6.60
2019-04-20T18:36:13.292Z,5.40
2019-04-20T18:38:48.056Z,7.28
2019-04-20T18:41:23.073Z,4.28
2019-04-20T18:43:48.634Z,8.68
2019-04-20T18:46:34.684Z,7.70
2019-04-20T18:49:06.937Z,9.85
2019-04-20T18:51:17.708Z,9.40
2019-04-20T18:53:50.063Z,5.03
2019-04-20T18:56:25.572Z,3.85
2019-04-20T18:58:51.244Z,5.70
2019-04-20T19:01:29.567Z,9.85
2019-04-20T19:03:54.006Z,6.83
2019-04-20T19:06:23.873Z,7.37
2019-04-20T19:08:55.325Z,7.85
2019-04-20T19:11:27.054Z,6.17
2019-04-20T19:14:33.607Z,5.65
2019-04-20T19:17:09.067Z,6.97
2019-04-20T19:19:47.724Z,5.37
2019-04-20T19:22:14.307Z,8.83
2019-04-20T19:24:47.900Z,8.63
2019-04-20T19:27:19.829Z,6.72
2019-04-20T19:29:56.382Z,7.20
2019-04-20T19:32:35.851Z,7.90
2019-04-20T19:35:01.341Z,9.00
2019-04-20T19:37:33.101Z,9.78
2019-04-20T19:40:08.157Z,8.80
2019-04-20T19:42:42.305Z,5.72
2019-04-20T19:45:26.277Z,10.08
2019-04-20T19:47:48.079Z,9.25
2019-04-20T19:50:44.136Z,10.48
2019-04-20T19:53:03.634Z,10.95
2019-04-20T19:55:26.037Z,12.00
2019-04-20T19:57:56.470Z,14.45
2019-04-20T20:00:14.611Z,14.55
2019-04-20T20:02:45.739Z,14.80
2019-04-20T20:05:17.801Z,16.73
2019-04-20T20:07:52.401Z,15.65
2019-04-20T20:10:20.883Z,15.60
2019-04-20T20:12:55.987Z,12.30
2019-04-20T20:15:27.962Z,14.00
2019-04-20T20:18:12.398Z,14.55
2019-04-20T20:20:47.317Z,12.60
2019-04-20T20:22:58.954Z,8.20
2019-04-20T20:25:32.990Z,10.03
2019-04-20T20:28:14.548Z,16.27
2019-04-20T20:30:48.186Z,17.30
2019-04-20T20:33:23.817Z,12.53
2019-04-20T20:35:46.295Z,14.65
2019-04-20T20:38:16.632Z,14.60
2019-04-20T20:40:52.482Z,15.48
2019-04-20T20:43:20.653Z,13.88
2019-04-20T20:45:55.422Z,13.00
2019-04-20T20:48:29.663Z,11.97
2019-04-20T20:51:07.709Z,12.82
2019-04-20T20:53:37.999Z,12.47
2019-04-20T20:56:01.930Z,12.65
2019-04-20T20:58:37.422Z,21.93
2019-04-20T21:01:04.411Z,16.25
2019-04-20T21:03:32.279Z,17.87
2019-04-20T21:05:58.145Z,22.60
2019-04-20T21:08:29.238Z,17.65
2019-04-20T21:11:00.157Z,16.80
2019-04-20T21:13:35.514Z,28.07
2019-04-20T21:16:09.993Z,25.80
2019-04-20T21:18:52.579Z,23.55
2019-04-20T21:21:19.254Z,28.50
2019-04-20T21:23:45.490Z,26.65
2019-04-20T21:26:12.764Z,30.55
2019-04-20T21:28:40.188Z,17.12
2019-04-20T21:31:14.680Z,9.98
2019-04-20T21:33:42.895Z,9.65
2019-04-20T21:36:18.079Z,11.60
2019-04-20T21:38:45.171Z,13.05
2019-04-20T21:41:18.602Z,10.60
2019-04-20T21:43:48.183Z,11.97
2019-04-20T21:46:18.755Z,11.73
2019-04-20T21:49:04.312Z,10.90
2019-04-20T21:51:32.099Z,11.93
2019-04-20T21:53:56.112Z,11.90
2019-04-20T21:56:24.084Z,11.53
2019-04-20T21:59:00.751Z,11.57
2019-04-20T22:01:34.613Z,13.18
2019-04-20T22:03:58.572Z,11.43
2019-04-20T22:06:29.684Z,10.45
2019-04-20T22:09:01.043Z,9.43
2019-04-20T22:11:33.665Z,12.13
2019-04-20T22:14:12.903Z,10.93
2019-04-20T22:16:41.702Z,8.50
2019-04-20T22:19:22.745Z,11.12
2019-04-20T22:21:53.360Z,9.20
2019-04-20T22:24:28.690Z,10.58
2019-04-20T22:26:54.863Z,12.55
2019-04-20T22:29:14.303Z,9.43
2019-04-20T22:31:51.803Z,12.43
2019-04-20T22:34:20.815Z,10.23
2019-04-20T22:36:48.771Z,12.75
2019-04-20T22:39:31.362Z,11.97
2019-04-20T22:42:01.175Z,11.05
2019-04-20T22:44:28.698Z,11.20
2019-04-20T22:46:58.521Z,10.38
2019-04-20T22:49:44.110Z,11.20
2019-04-20T22:52:13.197Z,12.82
2019-04-20T22:54:47.811Z,12.73
2019-04-20T22:57:13.013Z,15.23
2019-04-20T22:59:44.673Z,10.15
2019-04-20T23:02:08.465Z,15.95
2019-04-20T23:04:38.941Z,10.23
2019-04-20T23:07:10.747Z,12.90
2019-04-20T23:09:48.653Z,10.28
2019-04-20T23:12:17.545Z,10.38
2019-04-20T23:14:44.843Z,11.97
2019-04-20T23:17:18.364Z,12.37
2019-04-20T23:19:51.817Z,12.05
2019-04-20T23:22:19.065Z,13.75
2019-04-20T23:24:49.236Z,12.65
2019-04-20T23:27:25.556Z,10.93
2019-04-20T23:29:51.185Z,17.85
2019-04-20T23:32:22.487Z,12.93
2019-04-20T23:34:57.683Z,11.48
2019-04-20T23:37:29.869Z,11.65
2019-04-20T23:39:56.510Z,13.93
2019-04-20T23:42:37.638Z,21.40
2019-04-20T23:45:28.282Z,14.25
2019-04-20T23:47:58.874Z,11.18
2019-04-20T23:50:58.014Z,9.53
2019-04-20T23:53:13.979Z,13.70
2019-04-20T23:55:31.812Z,12.20
2019-04-20T23:58:06.799Z,12.07
